createdAt,value
2022-10-01T00:01:17.245Z,11.19
2022-10-01T00:03:46.455Z,11.23
2022-10-01T00:06:20.373Z,11.22
2022-10-01T00:08:50.073Z,11.19
2022-10-01T00:11:23.597Z,11.15
2022-10-01T00:13:52.375Z,11.12
2022-10-01T00:16:23.583Z,11.14
2022-10-01T00:18:53.638Z,11.14
2022-10-01T00:21:24.775Z,11.14
2022-10-01T00:23:59.498Z,11.11
2022-10-01T00:26:30.061Z,11.11
2022-10-01T00:29:00.473Z,11.10
2022-10-01T00:31:29.065Z,11.10
2022-10-01T00:33:59.782Z,11.10
2022-10-01T00:36:28.037Z,11.05
2022-10-01T00:39:00.251Z,11.07
2022-10-01T00:41:33.965Z,11.02
2022-10-01T00:44:23.143Z,11.00
2022-10-01T00:46:51.286Z,11.02
2022-10-01T00:49:24.197Z,11.01
2022-10-01T00:51:57.932Z,11.02
2022-10-01T00:54:40.497Z,11.05
2022-10-01T00:57:09.022Z,11.04
2022-10-01T00:59:37.629Z,11.04
2022-10-01T01:02:05.552Z,11.02
2022-10-01T01:04:33.508Z,11.00
2022-10-01T01:07:03.767Z,11.00
2022-10-01T01:09:41.403Z,10.97
2022-10-01T01:12:51.894Z,10.94
2022-10-01T01:15:34.312Z,10.95
2022-10-01T01:18:17.773Z,10.95
2022-10-01T01:21:10.973Z,10.98
2022-10-01T01:23:57.340Z,10.97
2022-10-01T01:26:45.625Z,10.97
2022-10-01T01:29:24.019Z,11.00
2022-10-01T01:31:54.202Z,11.00
2022-10-01T01:34:27.737Z,11.00
2022-10-01T01:37:03.938Z,11.02
2022-10-01T01:39:34.040Z,11.02
2022-10-01T01:42:08.361Z,11.04
2022-10-01T01:44:42.231Z,11.07
2022-10-01T01:47:12.831Z,11.07
2022-10-01T01:49:42.124Z,11.08
2022-10-01T01:52:13.442Z,11.05
2022-10-01T01:54:42.332Z,11.07
2022-10-01T01:57:13.183Z,11.04
2022-10-01T01:59:42.350Z,11.07
2022-10-01T02:02:18.549Z,11.07
2022-10-01T02:04:54.634Z,11.11
2022-10-01T02:07:52.103Z,11.08
2022-10-01T02:10:50.276Z,11.08
2022-10-01T02:13:50.389Z,11.07
2022-10-01T02:16:56.065Z,11.11
2022-10-01T02:19:53.022Z,11.10
2022-10-01T02:22:25.819Z,11.10
2022-10-01T02:24:59.778Z,11.10
2022-10-01T02:27:44.804Z,11.07
2022-10-01T02:30:13.313Z,11.10
2022-10-01T02:32:44.970Z,11.14
2022-10-01T02:35:16.654Z,11.12
2022-10-01T02:37:49.096Z,11.15
2022-10-01T02:40:22.303Z,11.14
2022-10-01T02:42:54.656Z,11.16
2022-10-01T02:45:24.351Z,11.15
2022-10-01T02:48:06.031Z,11.12
2022-10-01T02:50:44.285Z,11.16
2022-10-01T02:53:31.996Z,11.18
2022-10-01T02:56:01.352Z,11.19
2022-10-01T02:58:29.497Z,11.21
2022-10-01T03:00:57.342Z,11.19
2022-10-01T03:03:26.075Z,11.23
2022-10-01T03:05:53.913Z,11.21
2022-10-01T03:08:21.751Z,11.19
2022-10-01T03:10:50.519Z,11.21
2022-10-01T03:13:19.724Z,11.21
2022-10-01T03:15:47.615Z,11.22
2022-10-01T03:18:15.598Z,11.21
2022-10-01T03:20:43.312Z,11.22
2022-10-01T03:23:11.251Z,11.22
2022-10-01T03:25:39.213Z,11.22
2022-10-01T03:28:07.177Z,11.22
2022-10-01T03:30:34.933Z,11.26
2022-10-01T03:33:02.626Z,11.23
2022-10-01T03:35:32.151Z,11.26
2022-10-01T03:37:59.905Z,11.29
2022-10-01T03:40:27.636Z,11.29
2022-10-01T03:42:55.502Z,11.28
2022-10-01T03:45:23.570Z,11.35
2022-10-01T03:47:54.314Z,11.36
2022-10-01T03:50:22.185Z,11.40
2022-10-01T03:52:51.279Z,11.40
2022-10-01T03:55:19.366Z,11.42
2022-10-01T03:57:47.391Z,11.49
2022-10-01T04:00:15.209Z,11.47
2022-10-01T04:02:43.422Z,11.49
2022-10-01T04:05:12.323Z,11.52
2022-10-01T04:07:41.917Z,11.55
2022-10-01T04:10:10.002Z,11.55
2022-10-01T04:12:38.324Z,11.60
2022-10-01T04:15:06.472Z,11.56
2022-10-01T04:17:34.211Z,11.62
2022-10-01T04:20:02.124Z,11.60
2022-10-01T04:22:30.244Z,11.63
2022-10-01T04:24:58.008Z,11.64
2022-10-01T04:27:26.247Z,11.63
2022-10-01T04:29:53.977Z,11.70
2022-10-01T04:32:22.172Z,11.71
2022-10-01T04:34:53.021Z,11.73
2022-10-01T04:37:24.167Z,11.74
2022-10-01T04:39:51.972Z,11.77
2022-10-01T04:42:20.726Z,11.78
2022-10-01T04:44:48.573Z,11.80
2022-10-01T04:47:16.508Z,11.84
2022-10-01T04:49:44.220Z,11.85
2022-10-01T04:52:12.011Z,11.87
2022-10-01T04:54:39.744Z,11.84
2022-10-01T04:57:07.597Z,11.87
2022-10-01T04:59:35.370Z,11.91
2022-10-01T05:02:03.298Z,11.95
2022-10-01T05:04:31.139Z,11.97
2022-10-01T05:06:58.878Z,11.98
2022-10-01T05:09:26.667Z,12.02
2022-10-01T05:11:54.559Z,11.99
2022-10-01T05:14:22.428Z,12.01
2022-10-01T05:16:50.349Z,12.04
2022-10-01T05:19:18.083Z,12.02
2022-10-01T05:21:46.128Z,12.06
2022-10-01T05:24:14.192Z,12.11
2022-10-01T05:26:41.953Z,12.14
2022-10-01T05:29:10.012Z,12.12
2022-10-01T05:31:38.534Z,12.17
2022-10-01T05:34:06.664Z,12.18
2022-10-01T05:36:34.486Z,12.19
2022-10-01T05:39:04.958Z,12.24
2022-10-01T05:41:32.995Z,12.21
2022-10-01T05:44:02.875Z,12.24
2022-10-01T05:46:31.963Z,12.25
2022-10-01T05:48:59.778Z,12.26
2022-10-01T05:51:28.250Z,12.29
2022-10-01T05:53:58.999Z,12.35
2022-10-01T05:56:27.140Z,12.33
2022-10-01T05:58:55.084Z,12.32
2022-10-01T06:01:22.994Z,12.35
2022-10-01T06:03:54.014Z,12.35
2022-10-01T06:06:31.119Z,12.38
2022-10-01T06:09:00.263Z,12.39
2022-10-01T06:11:28.057Z,12.42
2022-10-01T06:13:56.005Z,12.43
2022-10-01T06:16:24.019Z,12.43
2022-10-01T06:18:57.291Z,12.53
2022-10-01T06:21:26.237Z,12.52
2022-10-01T06:23:54.831Z,12.56
2022-10-01T06:26:22.789Z,12.68
2022-10-01T06:28:51.581Z,12.85
2022-10-01T06:31:21.176Z,13.16
2022-10-01T06:33:49.088Z,13.16
2022-10-01T06:36:16.885Z,13.35
2022-10-01T06:38:47.476Z,13.16
2022-10-01T06:41:15.340Z,13.00
2022-10-01T06:43:43.264Z,12.93
2022-10-01T06:46:11.565Z,13.07
2022-10-01T06:48:39.458Z,13.11
2022-10-01T06:51:08.568Z,13.25
2022-10-01T06:53:36.416Z,13.22
2022-10-01T06:56:06.455Z,13.29
2022-10-01T06:58:34.886Z,13.32
2022-10-01T07:01:03.797Z,13.36
2022-10-01T07:03:32.213Z,13.47
2022-10-01T07:06:05.062Z,13.45
2022-10-01T07:08:33.371Z,13.50
2022-10-01T07:11:02.643Z,13.53
2022-10-01T07:13:31.321Z,13.57
2022-10-01T07:15:59.171Z,13.62
2022-10-01T07:18:27.023Z,14.46
2022-10-01T07:20:57.467Z,14.33
2022-10-01T07:23:25.366Z,14.32
2022-10-01T07:25:53.221Z,15.40
2022-10-01T07:28:23.946Z,14.91
2022-10-01T07:31:11.418Z,14.70
2022-10-01T07:33:39.582Z,14.69
2022-10-01T07:36:10.599Z,14.63
2022-10-01T07:38:38.373Z,14.55
2022-10-01T07:41:06.578Z,14.67
2022-10-01T07:43:36.106Z,15.02
2022-10-01T07:46:05.636Z,14.74
2022-10-01T07:48:33.493Z,14.67
2022-10-01T07:51:01.364Z,14.57
2022-10-01T07:53:29.558Z,14.70
2022-10-01T07:56:02.259Z,14.66
2022-10-01T07:58:30.710Z,15.11
2022-10-01T08:01:02.789Z,15.28
2022-10-01T08:03:31.236Z,15.59
2022-10-01T08:05:59.659Z,15.52
2022-10-01T08:08:27.942Z,15.24
2022-10-01T08:10:55.935Z,14.98
2022-10-01T08:13:26.917Z,14.81
2022-10-01T08:15:55.109Z,14.73
2022-10-01T08:18:24.099Z,14.73
2022-10-01T08:20:52.751Z,14.70
2022-10-01T08:23:21.563Z,14.63
2022-10-01T08:25:49.428Z,14.60
2022-10-01T08:28:17.681Z,14.62
2022-10-01T08:30:45.594Z,14.69
2022-10-01T08:33:14.134Z,14.98
2022-10-01T08:35:43.502Z,15.14
2022-10-01T08:38:12.526Z,15.34
2022-10-01T08:41:07.137Z,15.46
2022-10-01T08:43:38.724Z,15.55
2022-10-01T08:46:16.378Z,15.71
2022-10-01T08:48:58.715Z,16.07
2022-10-01T08:51:33.439Z,16.19
2022-10-01T08:54:41.004Z,16.26
2022-10-01T08:57:25.449Z,16.49
2022-10-01T08:59:57.684Z,16.28
2022-10-01T09:02:33.682Z,16.05
2022-10-01T09:05:33.531Z,15.71
2022-10-01T09:08:16.092Z,15.55
2022-10-01T09:10:48.345Z,15.40
2022-10-01T09:13:27.709Z,15.25
2022-10-01T09:16:20.150Z,15.14
2022-10-01T09:19:15.500Z,15.29
2022-10-01T09:21:49.108Z,15.80
2022-10-01T09:24:42.667Z,15.97
2022-10-01T09:27:25.769Z,16.39
2022-10-01T09:30:03.633Z,16.39
2022-10-01T09:32:38.312Z,16.51
2022-10-01T09:35:20.881Z,16.55
2022-10-01T09:38:01.092Z,16.88
2022-10-01T09:41:04.629Z,16.73
2022-10-01T09:43:39.056Z,16.52
2022-10-01T09:46:13.606Z,16.45
2022-10-01T09:49:03.069Z,16.55
2022-10-01T09:51:40.680Z,16.52
2022-10-01T09:54:22.839Z,16.84
2022-10-01T09:57:12.637Z,17.01
2022-10-01T10:00:01.666Z,17.14
2022-10-01T10:02:42.371Z,17.10
2022-10-01T10:05:23.531Z,16.95
2022-10-01T10:08:08.635Z,16.73
2022-10-01T10:10:39.731Z,16.77
2022-10-01T10:13:14.732Z,16.72
2022-10-01T10:15:58.670Z,16.73
2022-10-01T10:18:36.775Z,16.70
2022-10-01T10:21:15.036Z,16.94
2022-10-01T10:23:59.077Z,17.15
2022-10-01T10:26:58.352Z,17.25
2022-10-01T10:29:31.198Z,17.34
2022-10-01T10:32:03.761Z,17.22
2022-10-01T10:34:40.995Z,16.94
2022-10-01T10:37:18.102Z,16.77
2022-10-01T10:39:51.223Z,16.46
2022-10-01T10:42:19.923Z,16.14
2022-10-01T10:44:51.414Z,15.97
2022-10-01T10:47:21.828Z,15.86
2022-10-01T10:49:57.169Z,15.83
2022-10-01T10:52:30.240Z,15.86
2022-10-01T10:55:31.398Z,15.71
2022-10-01T10:58:19.146Z,15.89
2022-10-01T11:00:50.560Z,16.21
2022-10-01T11:03:22.653Z,16.56
2022-10-01T11:05:56.217Z,16.80
2022-10-01T11:08:28.901Z,16.91
2022-10-01T11:11:05.974Z,17.08
2022-10-01T11:14:00.638Z,17.19
2022-10-01T11:17:00.488Z,17.42
2022-10-01T11:19:48.987Z,17.31
2022-10-01T11:22:34.721Z,17.34
2022-10-01T11:25:21.398Z,17.49
2022-10-01T11:28:12.663Z,17.63
2022-10-01T11:30:58.983Z,17.63
2022-10-01T11:34:01.713Z,17.48
2022-10-01T11:36:41.910Z,17.40
2022-10-01T11:39:17.845Z,17.31
2022-10-01T11:42:06.109Z,17.42
2022-10-01T11:44:51.217Z,17.29
2022-10-01T11:47:30.690Z,17.21
2022-10-01T11:50:13.641Z,17.38
2022-10-01T11:52:48.127Z,17.67
2022-10-01T11:55:46.230Z,17.90
2022-10-01T11:58:50.453Z,17.97
2022-10-01T12:01:49.692Z,18.15
2022-10-01T12:04:40.498Z,18.24
2022-10-01T12:07:24.055Z,18.25
2022-10-01T12:10:17.330Z,18.45
2022-10-01T12:12:58.109Z,18.59
2022-10-01T12:15:34.318Z,18.51
2022-10-01T12:18:24.172Z,18.39
2022-10-01T12:20:55.856Z,18.31
2022-10-01T12:23:34.802Z,18.27
2022-10-01T12:26:41.259Z,18.12
2022-10-01T12:29:20.166Z,18.18
2022-10-01T12:32:03.043Z,18.11
2022-10-01T12:34:57.196Z,18.31
2022-10-01T12:38:04.187Z,18.60
2022-10-01T12:40:51.292Z,18.63
2022-10-01T12:43:53.405Z,18.69
2022-10-01T12:47:05.760Z,18.45
2022-10-01T12:50:11.339Z,18.67
2022-10-01T12:52:41.847Z,18.55
2022-10-01T12:55:22.117Z,18.21
2022-10-01T12:58:06.635Z,18.05
2022-10-01T13:01:01.350Z,17.96
2022-10-01T13:03:42.702Z,18.14
2022-10-01T13:06:27.109Z,18.10
2022-10-01T13:09:39.050Z,18.17
2022-10-01T13:12:18.011Z,18.42
2022-10-01T13:14:47.283Z,18.21
2022-10-01T13:17:35.029Z,18.39
2022-10-01T13:20:41.614Z,18.45
2022-10-01T13:23:21.235Z,18.66
2022-10-01T13:25:56.692Z,18.49
2022-10-01T13:28:48.263Z,18.70
2022-10-01T13:31:20.746Z,18.79
2022-10-01T13:33:56.960Z,18.57
2022-10-01T13:36:36.413Z,18.44
2022-10-01T13:39:04.491Z,18.24
2022-10-01T13:41:34.876Z,17.93
2022-10-01T13:44:09.387Z,17.62
2022-10-01T13:46:51.197Z,17.38
2022-10-01T13:49:26.170Z,17.21
2022-10-01T13:51:55.062Z,17.06
2022-10-01T13:55:01.833Z,16.93
2022-10-01T13:57:37.612Z,16.85
2022-10-01T14:00:17.913Z,16.84
2022-10-01T14:03:04.415Z,16.85
2022-10-01T14:05:40.332Z,16.88
2022-10-01T14:08:24.680Z,16.84
2022-10-01T14:11:19.392Z,16.66
2022-10-01T14:14:08.626Z,16.70
2022-10-01T14:16:42.591Z,16.84
2022-10-01T14:19:18.203Z,16.85
2022-10-01T14:21:54.396Z,16.99
2022-10-01T14:24:58.083Z,16.95
2022-10-01T14:28:01.483Z,16.94
2022-10-01T14:30:44.201Z,16.77
2022-10-01T14:33:55.330Z,16.93
2022-10-01T14:36:42.216Z,16.99
2022-10-01T14:39:18.495Z,16.99
2022-10-01T14:41:49.212Z,17.00
2022-10-01T14:44:29.507Z,17.22
2022-10-01T14:46:59.657Z,17.39
2022-10-01T14:49:31.002Z,17.36
2022-10-01T14:52:24.399Z,17.32
2022-10-01T14:55:09.000Z,17.21
2022-10-01T14:57:44.262Z,17.11
2022-10-01T15:00:19.635Z,17.01
2022-10-01T15:02:50.632Z,16.85
2022-10-01T15:05:31.929Z,16.74
2022-10-01T15:08:11.888Z,16.93
2022-10-01T15:10:45.827Z,17.12
2022-10-01T15:13:29.983Z,17.40
2022-10-01T15:16:11.972Z,17.55
2022-10-01T15:18:47.311Z,17.61
2022-10-01T15:21:47.535Z,17.56
2022-10-01T15:24:50.795Z,17.56
2022-10-01T15:27:21.188Z,17.34
2022-10-01T15:29:56.273Z,17.21
2022-10-01T15:32:26.107Z,16.97
2022-10-01T15:34:57.634Z,16.90
2022-10-01T15:37:36.601Z,16.80
2022-10-01T15:40:29.881Z,16.70
2022-10-01T15:43:26.214Z,16.56
2022-10-01T15:46:23.442Z,16.52
2022-10-01T15:49:18.860Z,16.49
2022-10-01T15:52:06.488Z,16.45
2022-10-01T15:54:35.197Z,16.49
2022-10-01T15:57:04.023Z,16.49
2022-10-01T15:59:32.326Z,16.57
2022-10-01T16:02:00.408Z,16.62
2022-10-01T16:04:28.309Z,16.60
2022-10-01T16:06:56.308Z,16.49
2022-10-01T16:09:28.463Z,16.35
2022-10-01T16:11:56.681Z,16.21
2022-10-01T16:14:44.551Z,16.07
2022-10-01T16:17:18.476Z,15.98
2022-10-01T16:19:52.101Z,15.89
2022-10-01T16:22:25.093Z,15.70
2022-10-01T16:25:26.358Z,15.56
2022-10-01T16:28:04.321Z,15.50
2022-10-01T16:30:34.292Z,15.42
2022-10-01T16:33:04.603Z,15.35
2022-10-01T16:35:35.728Z,15.22
2022-10-01T16:38:08.396Z,15.11
2022-10-01T16:40:44.545Z,15.02
2022-10-01T16:43:20.524Z,14.97
2022-10-01T16:45:48.307Z,14.90
2022-10-01T16:48:19.541Z,14.84
2022-10-01T16:50:48.628Z,14.79
2022-10-01T16:53:18.342Z,14.72
2022-10-01T16:55:46.961Z,14.65
2022-10-01T16:58:15.780Z,14.55
2022-10-01T17:00:44.087Z,14.46
2022-10-01T17:03:20.868Z,14.42
2022-10-01T17:05:49.789Z,14.35
2022-10-01T17:08:17.742Z,14.28
2022-10-01T17:10:48.505Z,14.18
2022-10-01T17:13:16.796Z,14.14
2022-10-01T17:15:44.760Z,14.08
2022-10-01T17:18:13.896Z,14.02
2022-10-01T17:20:42.515Z,14.00
2022-10-01T17:23:13.081Z,13.93
2022-10-01T17:25:42.401Z,13.90
2022-10-01T17:28:16.250Z,13.91
2022-10-01T17:30:46.551Z,13.87
2022-10-01T17:33:16.699Z,13.81
2022-10-01T17:35:47.091Z,13.78
2022-10-01T17:38:15.044Z,13.83
2022-10-01T17:40:45.262Z,13.71
2022-10-01T17:43:15.014Z,13.70
2022-10-01T17:45:44.521Z,13.66
2022-10-01T17:48:12.484Z,13.63
2022-10-01T17:50:43.847Z,13.56
2022-10-01T17:53:12.413Z,13.50
2022-10-01T17:55:41.814Z,13.43
2022-10-01T17:58:10.444Z,13.45
2022-10-01T18:00:41.533Z,13.52
2022-10-01T18:03:09.996Z,13.52
2022-10-01T18:05:38.145Z,13.56
2022-10-01T18:08:06.041Z,13.56
2022-10-01T18:10:33.839Z,13.56
2022-10-01T18:13:02.021Z,13.62
2022-10-01T18:15:29.930Z,13.63
2022-10-01T18:19:12.812Z,13.66
2022-10-01T18:20:46.084Z,13.64
2022-10-01T18:23:13.921Z,13.69
2022-10-01T18:25:42.025Z,13.66
2022-10-01T18:28:10.369Z,13.66
2022-10-01T18:30:38.279Z,13.63
2022-10-01T18:33:09.448Z,13.64
2022-10-01T18:35:37.219Z,13.60
2022-10-01T18:38:29.768Z,13.64
2022-10-01T18:41:04.395Z,13.73
2022-10-01T18:43:36.517Z,13.71
2022-10-01T18:46:21.731Z,13.69
2022-10-01T18:49:10.105Z,13.66
2022-10-01T18:51:53.363Z,13.67
2022-10-01T18:54:33.703Z,13.71
2022-10-01T18:57:15.684Z,13.77
2022-10-01T19:00:01.610Z,13.77
2022-10-01T19:02:32.445Z,13.80
2022-10-01T19:05:23.329Z,13.81
2022-10-01T19:08:00.463Z,13.74
2022-10-01T19:10:40.467Z,13.69
2022-10-01T19:13:15.958Z,13.69
2022-10-01T19:15:53.902Z,13.64
2022-10-01T19:18:24.647Z,13.73
2022-10-01T19:21:15.815Z,13.76
2022-10-01T19:23:52.490Z,13.67
2022-10-01T19:26:36.866Z,13.56
2022-10-01T19:29:11.197Z,13.40
2022-10-01T19:31:52.806Z,13.29
2022-10-01T19:34:38.781Z,13.18
2022-10-01T19:37:31.016Z,13.05
2022-10-01T19:40:14.952Z,13.02
2022-10-01T19:42:48.003Z,12.97
2022-10-01T19:45:27.400Z,12.93
2022-10-01T19:48:31.106Z,12.87
2022-10-01T19:51:10.321Z,12.77
2022-10-01T19:53:45.732Z,12.73
2022-10-01T19:56:20.398Z,12.67
2022-10-01T19:58:48.278Z,12.59
2022-10-01T20:01:24.938Z,12.57
2022-10-01T20:04:02.180Z,12.53
2022-10-01T20:06:43.261Z,12.46
2022-10-01T20:09:28.162Z,12.42
2022-10-01T20:12:26.206Z,12.33
2022-10-01T20:15:20.076Z,12.29
2022-10-01T20:17:59.722Z,12.21
2022-10-01T20:20:52.092Z,12.21
2022-10-01T20:23:36.711Z,12.18
2022-10-01T20:26:21.273Z,12.14
2022-10-01T20:28:54.252Z,12.06
2022-10-01T20:31:32.172Z,12.01
2022-10-01T20:34:35.217Z,12.02
2022-10-01T20:37:11.884Z,12.01
2022-10-01T20:39:56.886Z,11.99
2022-10-01T20:42:38.463Z,11.98
2022-10-01T20:45:16.187Z,11.95
2022-10-01T20:47:54.556Z,11.95
2022-10-01T20:50:33.996Z,12.02
2022-10-01T20:53:10.071Z,12.06
2022-10-01T20:55:55.369Z,12.11
2022-10-01T20:58:25.155Z,12.14
2022-10-01T21:01:06.950Z,12.15
2022-10-01T21:03:41.714Z,12.10
2022-10-01T21:06:15.445Z,12.04
2022-10-01T21:08:53.548Z,11.99
2022-10-01T21:11:30.521Z,11.94
2022-10-01T21:14:20.293Z,11.93
2022-10-01T21:17:17.813Z,11.90
2022-10-01T21:20:15.334Z,11.85
2022-10-01T21:23:30.390Z,11.87
2022-10-01T21:26:13.384Z,11.90
2022-10-01T21:28:50.549Z,11.87
2022-10-01T21:31:27.364Z,11.85
2022-10-01T21:34:42.809Z,11.83
2022-10-01T21:37:39.145Z,11.84
2022-10-01T21:40:16.480Z,11.84
2022-10-01T21:43:01.280Z,11.84
2022-10-01T21:45:39.101Z,11.83
2022-10-01T21:48:31.521Z,11.81
2022-10-01T21:51:15.131Z,11.80
2022-10-01T21:53:52.445Z,11.80
2022-10-01T21:56:29.052Z,11.81
2022-10-01T21:59:32.693Z,11.84
2022-10-01T22:02:35.596Z,11.80
2022-10-01T22:05:32.501Z,11.83
2022-10-01T22:08:29.402Z,11.85
2022-10-01T22:11:09.701Z,11.91
2022-10-01T22:13:44.662Z,11.90
2022-10-01T22:16:15.041Z,11.87
2022-10-01T22:18:54.250Z,11.88
2022-10-01T22:21:35.355Z,11.88
2022-10-01T22:24:16.956Z,11.90
2022-10-01T22:27:01.709Z,11.85
2022-10-01T22:29:31.454Z,11.85
2022-10-01T22:32:04.715Z,11.88
2022-10-01T22:34:40.936Z,11.90
2022-10-01T22:37:20.428Z,11.87
2022-10-01T22:40:12.186Z,11.87
2022-10-01T22:42:46.624Z,11.84
2022-10-01T22:45:18.470Z,11.84
2022-10-01T22:47:59.745Z,11.91
2022-10-01T22:50:51.359Z,11.91
2022-10-01T22:53:34.050Z,11.88
2022-10-01T22:56:01.884Z,11.87
2022-10-01T22:59:03.823Z,11.90
2022-10-01T23:01:44.904Z,11.87
2022-10-01T23:04:35.380Z,11.88
2022-10-01T23:07:35.492Z,11.95
2022-10-01T23:10:12.275Z,12.02
2022-10-01T23:13:15.380Z,12.02
2022-10-01T23:15:50.329Z,12.08
2022-10-01T23:18:35.137Z,12.18
2022-10-01T23:21:14.299Z,12.29
2022-10-01T23:23:47.809Z,12.39
2022-10-01T23:26:46.156Z,12.43
2022-10-01T23:29:56.191Z,12.50
2022-10-01T23:32:55.284Z,12.53
2022-10-01T23:35:33.277Z,12.55
2022-10-01T23:38:07.760Z,12.57
2022-10-01T23:40:43.919Z,12.57
2022-10-01T23:43:28.325Z,12.59
2022-10-01T23:46:22.665Z,12.56
2022-10-01T23:49:10.241Z,12.57
2022-10-01T23:51:55.580Z,12.59
2022-10-01T23:54:29.636Z,12.60
2022-10-01T23:57:05.319Z,12.56
2022-10-01T23:59:52.840Z,12.56
